Aérodrome :
LOGIN :

S'inscrire | Disclaimer

   EN    FR    IT 

 










Légende :    VFR   VFR Marginal   IFR   IFR Intensif   IFR Très Intensif
Visi : 
Plafond : 
>= 8 km
>= 3000ft
5 à 8 km
1000 à 3000 ft
1500m à 5 km
500 à 1000 ft
800 à 1500m
200 à 500 ft
< 800m
< 200 ft
Symboles :   Orages  Brouillard  Fortes neiges  Fortes précipitations  Vent > 20 kt
SIGMETs :   Divers  Orages  Givrage  Turbulence  Onde Orograph.  Cendres Volcan.







- Altitude de l'aérodrome : 90 ft
- Code IATA : NTE
- Voir les cartes d'approche


LFRS - Nantes

DERNIER METAR :
  • 191200Z AUTO 30006KT 230V350 9999 BKN037 BKN047 BKN056 17/09 Q1009 TEMPO SCT030TCU

METARs EXPIRÉS :
  • 191130Z AUTO 32007KT 290V350 9999 SCT033 BKN046 OVC052 17/09 Q1009 TEMPO SCT030TCU
  • 191100Z AUTO 30007KT 250V360 9999 BKN031 BKN040 17/09 Q1009 TEMPO SCT030TCU
  • 191030Z AUTO 29006KT 250V360 9999 BKN029 17/10 Q1009 TEMPO SCT030TCU
  • 191000Z AUTO 29006KT 230V340 9999 SCT025 16/10 Q1009 NOSIG
  • 190930Z AUTO 33004KT 230V040 9999 BKN022 BKN029 16/10 Q1009 NOSIG

TAF TAF LFRS
Valide du 19 à 12h jusqu'au 20 à 18h UTC


191100Z 1912/2018 32004KT 9999 SCT030
TEMPO 1912/1920 -SHRA SCT030TCU
PROB40
TEMPO 2012/2018 -SHRA SCT030TCU
ATIS : +33 2 40 05 12 74
Pas de NOTAMs connus pour ce terrain.



MET'MAP, la Météo Aéronautique d'un coup d'oeil ! - Copyright ORBIFLY Décembre 2007 - Disclaimer

ORBIFLY MET'MAP TEAM :

Programmation & Développement : Alexandra Zaïnal
Conception & Développement : Baudouin d'Aumeries
Co-Programmation & Développement : Marc-Olivier Méhu
Soutien technique & logistique : Manuel Goepfert

Contact : metmap@orbifly.com




SOURCES & CREDITS :

   NOAA